Time;durP1;ratioP1;P1;durP2;ratioP2;P2;SDS_P1;SDS_P2;PMS_P1;PMS_P2;Temp;Humidity;BMP_temperature;BMP_pressure;BME280_temperature;BME280_humidity;BME280_pressure;Samples;Min_cycle;Max_cycle;Signal;HPM_P1;HPM_P2
2022/09/20 00:01:16;;;;;;;8.77;3.37;;;10.00;1.00;;;;;;4971380;28;20216;-65
2022/09/20 00:03:46;;;;;;;17.00;5.27;;;10.00;99.10;;;;;;4988664;28;20209;-65
2022/09/20 00:06:15;;;;;;;8.87;3.00;;;9.90;1.00;;;;;;4989291;28;20684;-65
2022/09/20 00:08:43;;;;;;;10.13;3.87;;;9.90;99.90;;;;;;4966332;28;20218;-66
2022/09/20 00:11:16;;;;;;;11.73;2.73;;;9.90;99.90;;;;;;4982297;28;20205;-67
2022/09/20 00:13:45;;;;;;;14.17;3.43;;;10.00;99.90;;;;;;4982454;28;20311;-66
2022/09/20 00:16:16;;;;;;;18.60;10.77;;;9.90;99.90;;;;;;4990926;28;20229;-66
2022/09/20 00:18:48;;;;;;;20.50;11.10;;;9.80;1.00;;;;;;4983856;28;20193;-66
2022/09/20 00:21:17;;;;;;;24.90;13.63;;;9.80;1.00;;;;;;4964987;28;20564;-66
2022/09/20 00:23:45;;;;;;;11.57;5.13;;;9.70;1.00;;;;;;4991192;28;20620;-66
2022/09/20 00:26:16;;;;;;;10.07;2.97;;;9.80;1.00;;;;;;4988650;28;20308;-66
2022/09/20 00:28:43;;;;;;;10.73;2.80;;;9.70;99.90;;;;;;4990626;28;20261;-68
2022/09/20 00:31:10;;;;;;;11.63;2.80;;;9.80;99.90;;;;;;4990161;28;20202;-67
2022/09/20 00:36:26;;;;;;;10.67;3.90;;;9.80;99.90;;;;;;4990127;28;20198;-67
2022/09/20 00:38:57;;;;;;;10.73;4.23;;;9.80;1.00;;;;;;4990077;28;20233;-68
2022/09/20 00:41:24;;;;;;;8.53;3.60;;;9.70;96.30;;;;;;5005057;28;20312;-66
2022/09/20 00:43:52;;;;;;;10.23;2.80;;;9.80;99.90;;;;;;5005306;28;20702;-66
2022/09/20 00:46:26;;;;;;;9.77;3.10;;;9.90;99.90;;;;;;4989785;28;20248;-67
2022/09/20 00:49:00;;;;;;;13.53;3.20;;;9.90;72.90;;;;;;5004254;28;20204;-66
2022/09/20 00:51:31;;;;;;;10.60;2.83;;;9.80;1.00;;;;;;4989321;28;20194;-65
2022/09/20 00:54:02;;;;;;;11.10;3.70;;;9.70;99.90;;;;;;4988995;28;20197;-65
2022/09/20 00:56:36;;;;;;;11.90;3.83;;;10.10;1.00;;;;;;4988652;28;20544;-65
2022/09/20 00:59:18;;;;;;;9.87;4.13;;;10.20;99.90;;;;;;5004211;28;20248;-65
2022/09/20 01:01:51;;;;;;;14.17;7.93;;;10.30;99.90;;;;;;4965565;28;20608;-67
2022/09/20 01:04:21;;;;;;;19.83;9.87;;;10.50;99.90;;;;;;4980548;28;20247;-67
2022/09/20 01:06:52;;;;;;;16.40;8.93;;;10.40;1.00;;;;;;4974228;28;20197;-67
2022/09/20 01:09:19;;;;;;;18.63;12.20;;;10.40;1.00;;;;;;4988910;28;20292;-67
2022/09/20 01:11:47;;;;;;;20.10;12.90;;;10.60;99.90;;;;;;4983344;28;20213;-67
2022/09/20 01:14:27;;;;;;;17.40;9.60;;;10.50;1.00;;;;;;4983469;28;20258;-67
2022/09/20 01:16:58;;;;;;;9.30;5.63;;;10.60;99.90;;;;;;4969803;28;20194;-67
2022/09/20 01:20:04;;;;;;;14.20;5.80;;;10.60;99.90;;;;;;4985121;28;20229;-67
2022/09/20 01:22:43;;;;;;;9.90;3.30;;;10.70;1.00;;;;;;4982289;28;20205;-66
2022/09/20 01:25:44;;;;;;;6.50;2.93;;;10.60;67.30;;;;;;4969188;28;20292;-66
2022/09/20 01:28:12;;;;;;;10.87;2.73;;;10.20;1.00;;;;;;4969803;28;20304;-66
2022/09/20 01:31:05;;;;;;;10.47;2.70;;;10.00;99.90;;;;;;4969823;28;20199;-66
2022/09/20 01:33:35;;;;;;;11.87;2.73;;;9.80;99.90;;;;;;4952525;28;20245;-67
2022/09/20 01:36:04;;;;;;;10.43;2.93;;;9.90;1.00;;;;;;4969260;28;20222;-67
2022/09/20 01:39:02;;;;;;;4.73;2.53;;;9.90;1.00;;;;;;4944532;28;20674;-66
2022/09/20 01:42:00;;;;;;;11.27;3.63;;;9.80;99.90;;;;;;4968973;28;20940;-65
2022/09/20 01:44:35;;;;;;;13.27;3.40;;;9.90;1.00;;;;;;4953187;28;20237;-63
2022/09/20 01:47:14;;;;;;;15.60;9.83;;;10.00;99.90;;;;;;4958897;28;20687;-68
2022/09/20 01:50:11;;;;;;;16.13;8.70;;;10.30;1.00;;;;;;4968922;28;20213;-66
2022/09/20 01:52:56;;;;;;;16.67;9.87;;;10.70;1.50;;;;;;4968867;28;20199;-65
2022/09/20 01:56:11;;;;;;;19.20;13.57;;;11.00;1.00;;;;;;4967838;28;20689;-65
2022/09/20 01:58:47;;;;;;;23.57;14.07;;;11.30;1.00;;;;;;4889845;28;20226;-66
2022/09/20 02:01:57;;;;;;;24.83;14.63;;;11.20;99.90;;;;;;4969231;28;20202;-65
2022/09/20 02:04:54;;;;;;;19.80;9.60;;;11.30;99.90;;;;;;4944006;28;20209;-65
2022/09/20 02:07:43;;;;;;;24.93;15.40;;;11.30;1.00;;;;;;4944046;28;20202;-67
2022/09/20 02:10:22;;;;;;;29.77;19.10;;;11.60;1.00;;;;;;4968581;28;20240;-67
2022/09/20 02:13:16;;;;;;;17.93;9.53;;;11.70;1.00;;;;;;4968241;28;20234;-68
2022/09/20 02:16:11;;;;;;;29.13;17.93;;;11.60;1.00;;;;;;4928792;28;20213;-68
2022/09/20 02:18:55;;;;;;;25.53;16.77;;;11.50;2.00;;;;;;4983963;28;20257;-67
2022/09/20 02:21:37;;;;;;;14.73;6.47;;;11.80;78.20;;;;;;4950241;28;20515;-66
2022/09/20 02:24:25;;;;;;;12.37;6.93;;;11.80;99.90;;;;;;4964493;28;20273;-66
2022/09/20 02:27:20;;;;;;;18.70;12.33;;;11.30;99.90;;;;;;4980605;28;20269;-66
2022/09/20 02:30:00;;;;;;;10.70;3.83;;;11.10;1.00;;;;;;4971671;28;20856;-66
2022/09/20 02:33:07;;;;;;;23.10;13.67;;;10.90;1.00;;;;;;4965113;28;20205;-67
2022/09/20 02:35:45;;;;;;;14.50;3.87;;;10.90;1.00;;;;;;4964538;28;20194;-64
2022/09/20 02:38:50;;;;;;;8.90;4.43;;;10.90;1.00;;;;;;4964975;28;20189;-66
2022/09/20 02:41:32;;;;;;;19.77;9.70;;;10.80;1.00;;;;;;4965431;28;20758;-65
2022/09/20 02:44:24;;;;;;;8.13;2.93;;;10.80;1.00;;;;;;4967038;28;20273;-68
2022/09/20 02:47:35;;;;;;;20.37;13.73;;;10.60;1.00;;;;;;4978197;28;20592;-65
2022/09/20 02:50:14;;;;;;;13.93;8.30;;;10.80;99.90;;;;;;4943538;28;20238;-65
2022/09/20 02:52:51;;;;;;;9.87;5.57;;;10.80;1.00;;;;;;4982102;28;20638;-63
2022/09/20 02:55:35;;;;;;;18.00;10.67;;;10.60;1.00;;;;;;4969399;28;20198;-62
2022/09/20 02:58:07;;;;;;;10.67;4.07;;;10.60;99.90;;;;;;4948602;28;20198;-62
2022/09/20 03:00:53;;;;;;;15.13;7.03;;;10.60;1.00;;;;;;4942277;28;20713;-60
2022/09/20 03:03:37;;;;;;;9.13;4.07;;;10.60;99.90;;;;;;4943176;28;20198;-62
2022/09/20 03:06:47;;;;;;;9.80;2.80;;;10.40;43.60;;;;;;4980610;28;20236;-61
2022/09/20 03:09:53;;;;;;;11.60;3.10;;;10.40;99.90;;;;;;4940647;28;20218;-61
2022/09/20 03:12:42;;;;;;;12.00;3.57;;;10.30;99.90;;;;;;4964793;28;20244;-62
2022/09/20 03:15:35;;;;;;;8.00;3.77;;;10.30;99.90;;;;;;4939260;28;20775;-62
2022/09/20 03:18:12;;;;;;;7.97;2.97;;;10.20;99.90;;;;;;4927361;28;20225;-61
2022/09/20 03:20:59;;;;;;;5.67;2.40;;;10.20;99.90;;;;;;4963223;28;20224;-60
2022/09/20 03:23:51;;;;;;;7.23;3.03;;;10.10;99.90;;;;;;4950067;28;20717;-60
2022/09/20 03:26:39;;;;;;;14.47;8.53;;;10.20;1.00;;;;;;4958328;28;20202;-60
2022/09/20 03:29:25;;;;;;;10.93;4.20;;;10.40;1.00;;;;;;4958315;28;20234;-59
2022/09/20 03:32:15;;;;;;;12.30;3.93;;;10.40;1.00;;;;;;4947195;28;20221;-60
2022/09/20 03:34:56;;;;;;;14.93;6.90;;;10.40;99.90;;;;;;4944914;28;20218;-60
2022/09/20 03:37:31;;;;;;;9.60;3.40;;;10.40;1.00;;;;;;4971451;28;20214;-60
2022/09/20 03:40:40;;;;;;;12.63;6.10;;;10.40;99.90;;;;;;4971866;28;20602;-62
2022/09/20 03:43:27;;;;;;;9.17;3.30;;;10.40;1.00;;;;;;4903232;29;20236;-61
2022/09/20 03:46:03;;;;;;;13.90;8.20;;;10.40;1.00;;;;;;4878841;29;20196;-59
2022/09/20 03:49:08;;;;;;;8.87;3.20;;;10.50;1.00;;;;;;4949547;28;20218;-60
2022/09/20 03:51:57;;;;;;;14.40;8.77;;;10.50;99.90;;;;;;4972820;28;20194;-58
2022/09/20 03:54:30;;;;;;;12.77;2.77;;;10.60;1.00;;;;;;4971573;28;20202;-60
2022/09/20 03:57:18;;;;;;;11.73;2.67;;;10.60;99.90;;;;;;4954020;28;20543;-62
2022/09/20 04:00:17;;;;;;;7.40;2.77;;;10.60;99.90;;;;;;4971914;28;20203;-61
2022/09/20 04:02:53;;;;;;;11.67;3.20;;;10.50;99.90;;;;;;4892622;28;20222;-60
2022/09/20 04:05:46;;;;;;;9.23;3.00;;;10.40;99.90;;;;;;4972310;28;20203;-60
2022/09/20 04:08:20;;;;;;;13.33;3.80;;;10.30;99.90;;;;;;4947371;28;20218;-61
2022/09/20 04:11:08;;;;;;;9.87;3.63;;;10.40;1.00;;;;;;4985753;28;20221;-62
2022/09/20 04:13:38;;;;;;;18.30;4.97;;;10.40;1.00;;;;;;4971460;28;20761;-62
2022/09/20 04:16:27;;;;;;;7.23;3.80;;;10.40;1.00;;;;;;4970517;28;20210;-62
2022/09/20 04:19:03;;;;;;;10.10;3.23;;;10.60;1.00;;;;;;4954336;28;20213;-62
2022/09/20 04:21:54;;;;;;;15.03;3.30;;;10.60;1.00;;;;;;4971493;28;20552;-62
2022/09/20 04:24:27;;;;;;;10.37;4.40;;;10.50;99.90;;;;;;4954314;28;20917;-62
2022/09/20 04:27:00;;;;;;;10.07;3.83;;;10.50;1.00;;;;;;4971616;28;20195;-63
2022/09/20 04:29:29;;;;;;;12.60;4.13;;;10.60;1.00;;;;;;4971522;28;20694;-62
2022/09/20 04:32:25;;;;;;;12.33;5.00;;;10.70;1.00;;;;;;4984845;28;20194;-63
2022/09/20 04:38:04;;;;;;;11.43;3.60;;;10.60;99.90;;;;;;4934992;28;20302;-61
2022/09/20 04:40:56;;;;;;;8.60;3.70;;;10.50;99.90;;;;;;4971017;28;20554;-62
2022/09/20 04:43:38;;;;;;;10.57;4.30;;;10.40;1.00;;;;;;4953279;28;20215;-62
2022/09/20 04:46:20;;;;;;;9.17;3.87;;;10.30;1.00;;;;;;4949042;28;20317;-62
2022/09/20 04:49:34;;;;;;;10.63;4.47;;;10.20;1.00;;;;;;4969086;28;20257;-62
2022/09/20 04:52:33;;;;;;;10.70;4.27;;;10.10;1.00;;;;;;4970789;28;20202;-61
2022/09/20 04:55:27;;;;;;;14.23;4.33;;;10.10;1.00;;;;;;4970780;28;20198;-61
2022/09/20 04:58:32;;;;;;;9.53;4.10;;;10.00;1.00;;;;;;4969274;28;20690;-61
2022/09/20 05:01:16;;;;;;;10.77;4.77;;;9.90;1.00;;;;;;4934362;28;20206;-62
2022/09/20 05:03:49;;;;;;;9.80;3.93;;;10.00;1.00;;;;;;4967001;28;20224;-61
2022/09/20 05:06:37;;;;;;;17.03;7.83;;;9.90;25.00;;;;;;4952355;28;20186;-62
2022/09/20 05:09:04;;;;;;;10.63;4.67;;;9.90;31.90;;;;;;4969788;28;20733;-62
2022/09/20 05:11:54;;;;;;;13.67;4.77;;;9.90;99.90;;;;;;4969951;28;20285;-62
2022/09/20 05:14:28;;;;;;;12.67;4.60;;;9.90;99.90;;;;;;4970974;28;20216;-62
2022/09/20 05:17:20;;;;;;;15.17;4.27;;;10.00;99.90;;;;;;4970617;28;20194;-63
2022/09/20 05:20:25;;;;;;;12.27;3.63;;;10.20;95.60;;;;;;4986287;28;20682;-62
2022/09/20 05:22:52;;;;;;;11.47;3.77;;;10.10;1.00;;;;;;4969414;28;20198;-62
2022/09/20 05:25:55;;;;;;;13.33;3.93;;;10.10;7.60;;;;;;4969449;28;20216;-62
2022/09/20 05:28:34;;;;;;;11.90;4.43;;;10.20;1.00;;;;;;4945182;28;20209;-62
2022/09/20 05:31:18;;;;;;;7.97;3.90;;;10.20;1.00;;;;;;4985413;28;20676;-62
2022/09/20 05:34:07;;;;;;;9.30;5.13;;;10.20;1.00;;;;;;4970094;28;20273;-61
2022/09/20 05:36:55;;;;;;;13.57;5.63;;;10.30;99.90;;;;;;4985091;28;20198;-61
2022/09/20 05:40:05;;;;;;;13.83;6.07;;;10.30;1.00;;;;;;4969610;28;20277;-60
2022/09/20 05:42:45;;;;;;;16.07;7.00;;;10.30;1.00;;;;;;4891165;29;20196;-62
2022/09/20 05:45:41;;;;;;;15.57;5.57;;;10.40;1.00;;;;;;4965845;28;20220;-61
2022/09/20 05:48:31;;;;;;;10.57;5.23;;;10.40;1.00;;;;;;4952191;28;20225;-60
2022/09/20 05:51:25;;;;;;;18.00;6.97;;;10.40;1.00;;;;;;4952141;28;20225;-60
2022/09/20 05:53:58;;;;;;;14.50;6.67;;;10.40;1.00;;;;;;4954755;28;20565;-63
2022/09/20 05:56:44;;;;;;;24.43;7.23;;;10.40;1.00;;;;;;4968520;28;20706;-63
2022/09/20 05:59:44;;;;;;;15.80;6.30;;;10.50;1.00;;;;;;4968814;28;20694;-62
2022/09/20 06:02:23;;;;;;;12.60;5.17;;;10.50;1.00;;;;;;4968824;28;20540;-65
2022/09/20 06:04:50;;;;;;;11.93;5.37;;;10.70;1.00;;;;;;4984928;28;20209;-63
2022/09/20 06:07:29;;;;;;;15.03;4.97;;;10.70;1.00;;;;;;4959494;28;20198;-62
2022/09/20 06:10:19;;;;;;;12.20;5.10;;;10.80;1.00;;;;;;4966931;28;20285;-62
2022/09/20 06:13:13;;;;;;;14.20;5.50;;;10.80;1.00;;;;;;4936676;28;20244;-60
2022/09/20 06:15:58;;;;;;;12.77;5.03;;;10.90;1.00;;;;;;4971723;28;20220;-61
2022/09/20 06:18:33;;;;;;;9.10;4.23;;;10.90;99.90;;;;;;4977220;28;20826;-60
2022/09/20 06:21:21;;;;;;;11.33;4.23;;;11.00;1.00;;;;;;4987984;28;20305;-59
2022/09/20 06:23:48;;;;;;;10.00;5.37;;;11.40;1.00;;;;;;4987191;28;20208;-61
2022/09/20 06:26:17;;;;;;;15.03;8.63;;;11.70;99.90;;;;;;4987405;28;20301;-60
2022/09/20 06:28:48;;;;;;;11.03;6.57;;;12.00;1.00;;;;;;4988516;28;20225;-60
2022/09/20 06:31:16;;;;;;;29.50;16.77;;;12.10;1.00;;;;;;4985726;28;20281;-60
2022/09/20 06:33:58;;;;;;;34.23;21.00;;;12.30;1.00;;;;;;4966453;28;20710;-61
2022/09/20 06:42:19;;;;;;;17.63;11.70;;;12.80;99.90;;;;;;4986127;28;20197;-62
2022/09/20 06:44:52;;;;;;;18.80;13.80;;;13.00;99.90;;;;;;4987002;28;20669;-60
2022/09/20 06:47:20;;;;;;;20.50;11.50;;;13.30;40.20;;;;;;4971178;28;20201;-63
2022/09/20 06:49:49;;;;;;;19.17;14.67;;;13.40;1.00;;;;;;4973575;28;20219;-61
2022/09/20 06:52:21;;;;;;;19.40;10.53;;;13.70;1.00;;;;;;5000817;28;20198;-61
2022/09/20 06:54:53;;;;;;;18.77;11.53;;;14.10;1.00;;;;;;4985277;28;20236;-61
2022/09/20 06:57:31;;;;;;;16.33;8.43;;;14.40;1.00;;;;;;5002094;28;20193;-63
2022/09/20 06:59:58;;;;;;;19.07;12.20;;;14.50;1.00;;;;;;4973049;28;20209;-62
2022/09/20 07:02:25;;;;;;;20.30;11.93;;;14.60;1.00;;;;;;4992097;28;20213;-60
2022/09/20 07:04:54;;;;;;;18.53;11.30;;;14.70;1.00;;;;;;4990499;28;20205;-65
2022/09/20 07:07:21;;;;;;;20.05;11.60;;;15.10;1.00;;;;;;4991959;28;20225;-63
2022/09/20 07:09:47;;;;;;;15.75;9.95;;;15.40;99.90;;;;;;4991845;28;20581;-61
2022/09/20 07:12:14;;;;;;;15.43;8.90;;;18.50;69.70;;;;;;4974126;28;20329;-61
2022/09/20 07:14:43;;;;;;;17.75;9.77;;;19.70;1.00;;;;;;4991908;28;20193;-61
2022/09/20 07:17:10;;;;;;;12.90;8.25;;;22.70;1.00;;;;;;5004559;28;20276;-61
2022/09/20 07:19:37;;;;;;;18.25;11.93;;;24.80;1.00;;;;;;4997638;28;20209;-61
2022/09/20 07:22:04;;;;;;;15.18;5.47;;;24.40;1.00;;;;;;4973164;28;20201;-63
2022/09/20 07:24:31;;;;;;;12.20;6.07;;;21.50;1.00;;;;;;5005286;28;20680;-63
2022/09/20 07:27:01;;;;;;;10.35;3.35;;;22.90;1.00;;;;;;4991451;28;20265;-62
2022/09/20 07:29:28;;;;;;;9.45;4.90;;;21.00;1.00;;;;;;4989250;28;20198;-62
2022/09/20 07:31:56;;;;;;;12.43;4.75;;;23.80;1.00;;;;;;4972333;28;20288;-61
2022/09/20 07:34:23;;;;;;;8.80;4.30;;;26.80;77.20;;;;;;4990598;28;20584;-63
2022/09/20 07:36:50;;;;;;;9.02;4.32;;;27.10;91.60;;;;;;4979226;28;20216;-62
2022/09/20 07:39:17;;;;;;;8.80;3.08;;;26.70;91.10;;;;;;4991678;28;20237;-61
2022/09/20 07:41:49;;;;;;;8.65;3.53;;;23.70;87.90;;;;;;4971498;28;20262;-60
2022/09/20 07:44:20;;;;;;;8.30;3.58;;;24.80;93.40;;;;;;4988972;28;20249;-61
2022/09/20 07:46:51;;;;;;;7.85;3.38;;;28.30;92.40;;;;;;4991115;28;20272;-67
2022/09/20 07:49:20;;;;;;;6.47;3.28;;;30.30;81.50;;;;;;4987857;28;20316;-63
2022/09/20 07:51:48;;;;;;;9.90;2.53;;;30.20;73.70;;;;;;4989148;28;20234;-62
2022/09/20 07:54:15;;;;;;;8.00;3.40;;;31.10;67.60;;;;;;4988668;28;20599;-61
2022/09/20 07:56:43;;;;;;;8.27;3.80;;;31.90;62.80;;;;;;4981939;28;20559;-61
2022/09/20 07:59:11;;;;;;;10.07;3.00;;;31.40;56.50;;;;;;4965253;28;20197;-61
2022/09/20 08:01:39;;;;;;;7.07;2.50;;;30.80;50.60;;;;;;4982096;28;20206;-61
2022/09/20 08:04:07;;;;;;;5.97;3.10;;;31.50;50.60;;;;;;4968541;28;20198;-61
2022/09/20 08:06:39;;;;;;;8.35;3.88;;;33.40;51.80;;;;;;5000358;28;20193;-62
2022/09/20 08:09:07;;;;;;;7.30;3.97;;;33.10;46.80;;;;;;4986613;28;20194;-62
2022/09/20 08:11:38;;;;;;;5.28;2.83;;;33.80;43.40;;;;;;4986737;28;20228;-61
2022/09/20 08:14:14;;;;;;;6.30;3.45;;;34.50;42.90;;;;;;4968130;28;20238;-62
2022/09/20 08:16:43;;;;;;;7.63;3.53;;;34.80;39.40;;;;;;4967994;28;20756;-61
2022/09/20 08:19:29;;;;;;;5.22;2.50;;;32.50;33.00;;;;;;4968470;28;20198;-62
2022/09/20 08:21:56;;;;;;;7.80;2.72;;;32.40;35.00;;;;;;4967857;28;20194;-62
2022/09/20 08:24:25;;;;;;;6.05;2.15;;;32.60;32.90;;;;;;4944813;28;20558;-61
2022/09/20 08:26:51;;;;;;;6.20;2.35;;;31.90;33.70;;;;;;4966431;28;20222;-61
2022/09/20 08:29:19;;;;;;;4.50;2.25;;;33.10;31.60;;;;;;4950608;28;20238;-61
2022/09/20 08:31:46;;;;;;;6.68;2.70;;;32.30;28.10;;;;;;4952049;28;20218;-61
2022/09/20 08:34:14;;;;;;;4.38;2.25;;;32.00;32.70;;;;;;4971471;28;20195;-61
2022/09/20 08:36:46;;;;;;;7.78;2.50;;;34.90;29.30;;;;;;4944410;28;20199;-61
2022/09/20 08:39:14;;;;;;;7.40;2.88;;;35.30;26.20;;;;;;4961351;28;20206;-63
2022/09/20 08:42:13;;;;;;;6.03;2.47;;;29.10;24.50;;;;;;4952135;28;20254;-62
2022/09/20 08:44:43;;;;;;;8.88;2.90;;;30.70;26.90;;;;;;4969243;28;20285;-62
2022/09/20 08:47:14;;;;;;;6.75;3.15;;;32.20;26.80;;;;;;4952255;28;20264;-63
2022/09/20 08:49:42;;;;;;;5.63;2.65;;;32.10;25.60;;;;;;4951496;28;20666;-63
2022/09/20 08:52:30;;;;;;;5.82;2.63;;;33.50;24.60;;;;;;4952642;28;20254;-64
2022/09/20 08:55:15;;;;;;;7.20;3.33;;;34.20;25.00;;;;;;4947915;28;20190;-63
2022/09/20 08:57:43;;;;;;;6.18;2.97;;;33.50;24.30;;;;;;4967154;28;20197;-62
2022/09/20 09:00:17;;;;;;;4.55;1.50;;;33.70;23.80;;;;;;4946119;28;20195;-61
2022/09/20 09:02:45;;;;;;;7.05;1.98;;;35.00;21.50;;;;;;4942315;28;20300;-61
2022/09/20 09:05:32;;;;;;;5.85;1.98;;;36.00;17.20;;;;;;4963755;28;20250;-61
2022/09/20 09:08:15;;;;;;;6.32;2.25;;;35.70;16.00;;;;;;4931417;28;20210;-61
2022/09/20 09:10:47;;;;;;;6.70;1.50;;;35.70;16.40;;;;;;4942768;28;20229;-65
2022/09/20 09:13:24;;;;;;;4.18;1.90;;;35.50;14.80;;;;;;4959418;28;20233;-63
2022/09/20 09:15:58;;;;;;;3.72;1.88;;;36.00;16.10;;;;;;4983365;28;20692;-62
2022/09/20 09:18:34;;;;;;;3.97;2.17;;;37.00;12.20;;;;;;4984412;28;20212;-63
2022/09/20 09:21:04;;;;;;;4.90;2.17;;;38.10;12.70;;;;;;4983892;28;20197;-64
2022/09/20 09:23:49;;;;;;;5.97;2.17;;;37.40;12.70;;;;;;4984127;28;20285;-63
2022/09/20 09:26:22;;;;;;;6.18;2.90;;;37.30;12.20;;;;;;4965817;28;20225;-72
2022/09/20 09:29:13;;;;;;;5.10;2.28;;;38.00;12.60;;;;;;4983081;28;20205;-62
2022/09/20 09:31:40;;;;;;;6.70;3.42;;;39.40;10.90;;;;;;4961952;28;20225;-63
2022/09/20 09:34:25;;;;;;;7.78;4.32;;;39.10;9.90;;;;;;4985537;28;20234;-62
2022/09/20 09:36:56;;;;;;;9.25;4.18;;;34.40;3.60;;;;;;4999161;28;20193;-62
2022/09/20 09:39:25;;;;;;;6.68;3.42;;;30.40;5.90;;;;;;5000231;28;20204;-63
2022/09/20 09:41:53;;;;;;;5.63;1.85;;;28.70;6.90;;;;;;4983487;28;20204;-65
2022/09/20 09:44:29;;;;;;;4.95;2.63;;;26.60;6.40;;;;;;4985952;28;20198;-64
2022/09/20 09:46:57;;;;;;;8.15;4.75;;;25.30;6.20;;;;;;4985200;28;20189;-62
2022/09/20 09:49:32;;;;;;;4.85;1.83;;;25.10;10.50;;;;;;4964444;28;20197;-62
2022/09/20 09:52:23;;;;;;;8.95;4.30;;;25.10;10.50;;;;;;4974048;28;20202;-63
2022/09/20 09:54:53;;;;;;;5.65;4.47;;;25.30;11.20;;;;;;4979063;28;20197;-62
2022/09/20 09:57:42;;;;;;;7.72;4.97;;;24.60;12.10;;;;;;4967306;28;20566;-62
2022/09/20 10:00:16;;;;;;;7.30;1.88;;;24.10;11.90;;;;;;4966386;28;20201;-62
2022/09/20 10:03:03;;;;;;;9.07;5.60;;;24.00;12.60;;;;;;4985547;28;20197;-62
2022/09/20 10:05:48;;;;;;;6.30;3.88;;;23.80;15.10;;;;;;4967731;28;20208;-63
2022/09/20 10:08:27;;;;;;;6.70;1.67;;;23.20;13.40;;;;;;4983442;28;20256;-64
2022/09/20 10:11:36;;;;;;;7.43;2.70;;;22.10;13.70;;;;;;4960640;28;20293;-63
2022/09/20 10:14:31;;;;;;;5.95;2.78;;;21.40;17.30;;;;;;4929162;28;20244;-63
2022/09/20 10:17:22;;;;;;;8.00;4.93;;;20.50;23.10;;;;;;4967992;28;20305;-62
2022/09/20 10:20:03;;;;;;;11.45;4.40;;;21.00;55.50;;;;;;4963781;28;20240;-65
2022/09/20 10:22:50;;;;;;;5.80;2.47;;;22.40;24.40;;;;;;4967030;28;20195;-64
2022/09/20 10:25:56;;;;;;;4.25;2.20;;;23.90;24.60;;;;;;4964649;28;20203;-61
2022/09/20 10:28:54;;;;;;;7.40;3.25;;;28.00;24.90;;;;;;4964602;28;20553;-64
2022/09/20 10:31:53;;;;;;;8.98;4.43;;;30.00;18.30;;;;;;4963269;28;20303;-62
2022/09/20 10:34:49;;;;;;;8.35;4.75;;;33.50;17.90;;;;;;4964097;28;20277;-63
2022/09/20 10:37:47;;;;;;;7.22;3.83;;;35.50;17.40;;;;;;4943858;28;20721;-62
2022/09/20 10:40:23;;;;;;;5.78;3.80;;;32.80;7.60;;;;;;4950654;28;20257;-62
2022/09/20 10:43:15;;;;;;;9.70;4.38;;;29.70;8.50;;;;;;4969778;28;20285;-63
2022/09/20 10:45:52;;;;;;;5.60;3.42;;;27.70;7.00;;;;;;4965648;28;20201;-62
2022/09/20 10:48:51;;;;;;;8.77;2.97;;;26.80;6.90;;;;;;4965163;28;20209;-61
2022/09/20 10:51:27;;;;;;;6.53;2.03;;;25.00;7.10;;;;;;4966949;28;20685;-61
2022/09/20 10:54:13;;;;;;;4.15;1.35;;;23.70;7.20;;;;;;4966823;28;20208;-61
2022/09/20 10:56:46;;;;;;;4.90;3.33;;;22.90;7.50;;;;;;4966849;28;20289;-61
2022/09/20 10:59:25;;;;;;;4.10;2.75;;;22.70;12.60;;;;;;4969131;28;20215;-61
2022/09/20 11:02:09;;;;;;;4.25;1.58;;;23.40;15.20;;;;;;4966499;28;20218;-64
2022/09/20 11:05:02;;;;;;;4.15;1.83;;;25.10;11.10;;;;;;4967133;28;20194;-63
2022/09/20 11:07:55;;;;;;;8.05;2.65;;;25.50;11.90;;;;;;4956564;28;20232;-62
2022/09/20 11:10:46;;;;;;;5.00;1.45;;;24.70;8.10;;;;;;4960377;28;20209;-63
2022/09/20 11:13:32;;;;;;;4.65;2.72;;;23.70;10.00;;;;;;4959811;28;20229;-63
2022/09/20 11:16:33;;;;;;;8.45;1.92;;;23.70;12.90;;;;;;4969191;28;20229;-63
2022/09/20 11:19:10;;;;;;;6.95;3.03;;;23.20;10.90;;;;;;4985296;28;20196;-62
2022/09/20 11:21:48;;;;;;;9.35;3.53;;;22.00;12.30;;;;;;4979355;28;20233;-62
2022/09/20 11:24:47;;;;;;;7.65;2.10;;;21.40;14.40;;;;;;4988394;28;20217;-62
2022/09/20 11:27:30;;;;;;;4.82;2.92;;;21.40;12.10;;;;;;4969246;28;20285;-62
2022/09/20 11:30:07;;;;;;;6.22;3.28;;;22.30;14.30;;;;;;4985768;28;20202;-62
2022/09/20 11:32:46;;;;;;;5.70;1.75;;;22.60;15.20;;;;;;4985474;28;20711;-62
2022/09/20 11:35:45;;;;;;;11.27;5.13;;;22.00;13.00;;;;;;4971092;28;20209;-63
2022/09/20 11:38:30;;;;;;;4.68;3.33;;;21.80;15.70;;;;;;4990335;28;20190;-62
2022/09/20 11:41:18;;;;;;;5.85;3.13;;;23.10;35.20;;;;;;4984451;28;20289;-63
2022/09/20 11:43:47;;;;;;;5.45;3.25;;;24.80;15.00;;;;;;4985078;28;20585;-62
2022/09/20 11:46:32;;;;;;;6.70;2.55;;;25.80;14.80;;;;;;4984612;28;20185;-61
2022/09/20 11:49:02;;;;;;;4.50;1.60;;;26.60;11.70;;;;;;4988056;28;20253;-61
2022/09/20 11:51:48;;;;;;;3.20;1.95;;;27.50;11.80;;;;;;4987414;28;20213;-59
2022/09/20 11:54:54;;;;;;;5.00;2.67;;;27.50;10.80;;;;;;4982515;28;20212;-63
2022/09/20 11:57:23;;;;;;;7.95;2.70;;;26.40;25.80;;;;;;4966649;28;20665;-61
2022/09/20 11:59:55;;;;;;;3.45;1.45;;;26.90;12.90;;;;;;4984858;28;20931;-61
2022/09/20 12:02:29;;;;;;;6.10;2.90;;;27.30;10.40;;;;;;4998168;28;20617;-61
2022/09/20 12:04:57;;;;;;;3.53;1.38;;;26.70;25.50;;;;;;4987358;28;20201;-61
2022/09/20 12:07:33;;;;;;;6.20;2.00;;;26.50;7.20;;;;;;4967137;28;20323;-61
2022/09/20 12:10:19;;;;;;;6.03;3.22;;;26.80;7.50;;;;;;4964743;28;20205;-61
2022/09/20 12:12:49;;;;;;;6.22;2.35;;;25.90;6.70;;;;;;4979204;28;20333;-62
2022/09/20 12:15:30;;;;;;;8.88;3.92;;;25.60;5.70;;;;;;4960768;28;20209;-63
2022/09/20 12:17:57;;;;;;;5.00;1.70;;;26.10;7.10;;;;;;4967278;28;20285;-62
2022/09/20 12:20:33;;;;;;;3.88;2.45;;;25.60;4.50;;;;;;4967743;28;21023;-63
2022/09/20 12:23:44;;;;;;;8.23;3.72;;;24.30;4.90;;;;;;4970174;28;20300;-62
2022/09/20 12:26:20;;;;;;;7.32;3.97;;;23.20;6.30;;;;;;4950502;28;20290;-62
2022/09/20 12:28:53;;;;;;;3.85;1.60;;;22.90;9.90;;;;;;4983900;28;20194;-62
2022/09/20 12:31:28;;;;;;;5.95;3.55;;;23.90;8.90;;;;;;4967610;28;20217;-63
2022/09/20 12:34:16;;;;;;;6.45;3.10;;;23.70;8.30;;;;;;4970133;28;20610;-62
2022/09/20 12:36:50;;;;;;;6.90;3.30;;;23.40;8.30;;;;;;4968196;28;20186;-62
2022/09/20 12:39:26;;;;;;;11.13;5.13;;;23.40;8.10;;;;;;4966490;28;20214;-62
2022/09/20 12:42:01;;;;;;;9.30;4.43;;;23.20;10.60;;;;;;4951085;28;20190;-64
2022/09/20 12:44:40;;;;;;;4.28;2.05;;;23.50;24.80;;;;;;4968444;28;20560;-62
2022/09/20 12:47:10;;;;;;;5.32;3.88;;;23.30;7.20;;;;;;4971441;28;20726;-63
2022/09/20 12:52:52;;;;;;;7.68;4.53;;;22.80;10.30;;;;;;4968300;28;20198;-64
2022/09/20 12:55:31;;;;;;;6.50;4.90;;;22.70;10.60;;;;;;4966482;28;20198;-63
2022/09/20 12:58:03;;;;;;;4.00;2.00;;;22.40;12.40;;;;;;4938670;28;20218;-62
2022/09/20 13:00:39;;;;;;;7.57;5.50;;;22.10;9.20;;;;;;4955573;28;20682;-63
2022/09/20 13:03:34;;;;;;;5.65;3.47;;;21.80;12.30;;;;;;4955060;28;20209;-64
2022/09/20 13:06:10;;;;;;;9.60;7.10;;;21.50;13.20;;;;;;4981867;28;20209;-63
2022/09/20 13:08:50;;;;;;;6.55;5.10;;;21.20;14.30;;;;;;4953162;28;20778;-64
2022/09/20 13:11:27;;;;;;;9.88;6.75;;;21.50;12.30;;;;;;4968770;28;20216;-63
2022/09/20 13:13:58;;;;;;;10.45;7.63;;;21.10;14.50;;;;;;5001607;28;20246;-63
2022/09/20 13:16:46;;;;;;;7.95;6.32;;;21.00;17.00;;;;;;4988635;28;20194;-63
2022/09/20 13:19:21;;;;;;;10.07;6.97;;;20.80;15.10;;;;;;4971594;28;20713;-62
2022/09/20 13:22:22;;;;;;;3.40;1.40;;;20.80;16.40;;;;;;4985515;28;20225;-61
2022/09/20 13:24:58;;;;;;;11.63;5.82;;;21.10;14.50;;;;;;4988761;28;20673;-64
2022/09/20 13:27:39;;;;;;;9.43;3.15;;;21.00;17.10;;;;;;4989627;28;20193;-64
2022/09/20 13:30:16;;;;;;;10.90;5.63;;;21.10;12.10;;;;;;4988376;28;20574;-64
2022/09/20 13:32:43;;;;;;;6.88;3.78;;;21.20;16.90;;;;;;4971683;28;20288;-63
2022/09/20 13:35:30;;;;;;;5.05;3.15;;;21.00;16.80;;;;;;4986995;28;20201;-64
2022/09/20 13:38:23;;;;;;;4.78;3.03;;;21.40;14.00;;;;;;4971981;28;20681;-64
2022/09/20 13:40:53;;;;;;;5.65;1.50;;;21.20;13.80;;;;;;4988621;28;20591;-63
2022/09/20 13:43:28;;;;;;;6.43;3.53;;;21.20;11.90;;;;;;4970987;28;20680;-63
2022/09/20 13:45:57;;;;;;;4.53;2.90;;;21.10;13.20;;;;;;4987890;28;20189;-62
2022/09/20 13:48:28;;;;;;;4.93;2.28;;;20.90;13.00;;;;;;4966567;28;20201;-63
2022/09/20 13:50:56;;;;;;;4.32;2.30;;;20.60;14.60;;;;;;4989643;28;20244;-63
2022/09/20 13:53:25;;;;;;;4.50;1.30;;;20.50;10.80;;;;;;4989584;28;20216;-62
2022/09/20 13:56:21;;;;;;;3.88;1.45;;;19.90;14.00;;;;;;4989169;28;20272;-63
2022/09/20 13:58:49;;;;;;;6.43;3.58;;;20.10;17.30;;;;;;4988856;28;20288;-66
2022/09/20 14:01:34;;;;;;;4.13;1.40;;;20.30;23.10;;;;;;5002494;28;20413;-65
2022/09/20 14:04:08;;;;;;;4.88;2.67;;;20.40;14.10;;;;;;4951061;28;20209;-64
2022/09/20 14:06:35;;;;;;;5.97;3.40;;;20.00;16.80;;;;;;4986215;28;20201;-64